Sankuniki — JD2465 — position and weather

sailwx.info

Track history (hours):
 
Tides and Currents Weather Stations Pressure Air Temp Water Temp Dewpoint Dewpoint Depression Visibility Wind Speed Wind Dir Waves Ship Positions

Sankuniki

Last reported at 2017-Jun-23 10:54 UTC. Time now 2017-Jun-27 02:00 UTC.
Position N 34°02' E 135°02'.

Length 71 m; draft 4.8 m.

Type: Cargo ship. MMSI: 431000269.

Date/timePositionNaut miles runAvg speedWind from/ knotsBaromVisibWave heightAir tempDewpointWater temp
2017-Jun-23 10:54N 34°02' E 135°02'511.1
2017-Jun-23 10:30N 34°06' E 135°02'511.0
2017-Jun-23 10:00N 34°12' E 135°02'1410.4
2017-Jun-23 08:40N 34°24' E 135°09'211.4
2017-Jun-23 08:27N 34°26' E 135°11'511.5
2017-Jun-23 07:59N 34°30' E 135°15'511.2
2017-Jun-23 07:30N 34°35' E 135°19'611.1
2017-Jun-23 07:00N 34°38' E 135°24'3 1.3
2017-Jun-23 04:37N 34°40' E 135°27'0 0.0
2017-Jun-23 04:29N 34°40' E 135°27'0 0.0
2017-Jun-23 03:57N 34°40' E 135°27'0 0.0
2017-Jun-23 03:22N 34°40' E 135°27'0 0.0
2017-Jun-23 02:55N 34°40' E 135°27'0 0.0
2017-Jun-23 02:10N 34°40' E 135°27'0 0.0
2017-Jun-23 00:21N 34°40' E 135°27'0 0.1
2017-Jun-22 23:59N 34°40' E 135°27'0 0.0
2017-Jun-22 22:04N 34°40' E 135°27'0 0.0
2017-Jun-22 21:58N 34°40' E 135°27'1 1.4
2017-Jun-22 21:30N 34°40' E 135°26'4 8.4
2017-Jun-22 21:00N 34°37' E 135°22'4 7.7
2017-Jun-22 20:30N 34°36' E 135°18'2 3.3
2017-Jun-22 20:00N 34°35' E 135°16'4 8.6
2017-Jun-22 19:30N 34°34' E 135°11'612.7
2017-Jun-22 19:00N 34°36' E 135°03'  
Track history (hours):
 
Tides and Currents Weather Stations Pressure Air Temp Water Temp Dewpoint Dewpoint Depression Visibility Wind Speed Wind Dir Waves Ship Positions

Sankuniki

Last reported at 2017-Jun-23 10:54 UTC. Time now 2017-Jun-27 02:00 UTC.
Position N 34°02' E 135°02'.

Length 71 m; draft 4.8 m.

Type: Cargo ship. MMSI: 431000269.

Date/timePositionNaut miles runAvg speedWind from/ knotsBaromVisibWave heightAir tempDewpointWater temp
2017-Jun-23 10:54N 34°02' E 135°02'511.1
2017-Jun-23 10:30N 34°06' E 135°02'511.0
2017-Jun-23 10:00N 34°12' E 135°02'1410.4
2017-Jun-23 08:40N 34°24' E 135°09'211.4
2017-Jun-23 08:27N 34°26' E 135°11'511.5
2017-Jun-23 07:59N 34°30' E 135°15'511.2
2017-Jun-23 07:30N 34°35' E 135°19'611.1
2017-Jun-23 07:00N 34°38' E 135°24'3 1.3
2017-Jun-23 04:37N 34°40' E 135°27'0 0.0
2017-Jun-23 04:29N 34°40' E 135°27'0 0.0
2017-Jun-23 03:57N 34°40' E 135°27'0 0.0
2017-Jun-23 03:22N 34°40' E 135°27'0 0.0
2017-Jun-23 02:55N 34°40' E 135°27'0 0.0
2017-Jun-23 02:10N 34°40' E 135°27'0 0.0
2017-Jun-23 00:21N 34°40' E 135°27'0 0.1
2017-Jun-22 23:59N 34°40' E 135°27'0 0.0
2017-Jun-22 22:04N 34°40' E 135°27'0 0.0
2017-Jun-22 21:58N 34°40' E 135°27'1 1.4
2017-Jun-22 21:30N 34°40' E 135°26'4 8.4
2017-Jun-22 21:00N 34°37' E 135°22'4 7.7
2017-Jun-22 20:30N 34°36' E 135°18'2 3.3
2017-Jun-22 20:00N 34°35' E 135°16'4 8.6
2017-Jun-22 19:30N 34°34' E 135°11'612.7
2017-Jun-22 19:00N 34°36' E 135°03'  

Dump ship's entire track history